sensor_id;sensor_type;location;lat;lon;timestamp;temperature;humidity
44190;DHT22;29856;52.144;5.430;2023-02-23T00:01:40;10.10;99.90
44190;DHT22;29856;52.144;5.430;2023-02-23T00:04:06;10.20;99.90
44190;DHT22;29856;52.144;5.430;2023-02-23T00:06:33;10.20;99.90
44190;DHT22;29856;52.144;5.430;2023-02-23T00:08:59;10.20;99.90
44190;DHT22;29856;52.144;5.430;2023-02-23T00:11:24;10.10;99.90
44190;DHT22;29856;52.144;5.430;2023-02-23T00:13:50;10.00;99.90
44190;DHT22;29856;52.144;5.430;2023-02-23T00:16:21;9.90;99.90
44190;DHT22;29856;52.144;5.430;2023-02-23T00:18:51;10.00;99.90
44190;DHT22;29856;52.144;5.430;2023-02-23T00:21:28;10.00;99.90
44190;DHT22;29856;52.144;5.430;2023-02-23T00:23:56;10.00;99.90
44190;DHT22;29856;52.144;5.430;2023-02-23T00:26:24;10.00;99.90
44190;DHT22;29856;52.144;5.430;2023-02-23T00:28:52;10.10;99.90
44190;DHT22;29856;52.144;5.430;2023-02-23T00:31:20;10.10;99.90
44190;DHT22;29856;52.144;5.430;2023-02-23T00:33:47;10.00;99.90
44190;DHT22;29856;52.144;5.430;2023-02-23T00:36:13;10.10;99.90
44190;DHT22;29856;52.144;5.430;2023-02-23T00:38:40;10.10;99.90
44190;DHT22;29856;52.144;5.430;2023-02-23T00:41:06;10.00;99.90
44190;DHT22;29856;52.144;5.430;2023-02-23T00:43:34;9.90;99.90
44190;DHT22;29856;52.144;5.430;2023-02-23T00:45:59;9.90;99.90
44190;DHT22;29856;52.144;5.430;2023-02-23T00:48:25;9.90;99.90
44190;DHT22;29856;52.144;5.430;2023-02-23T00:51:00;9.90;99.90
44190;DHT22;29856;52.144;5.430;2023-02-23T00:53:43;9.80;99.90
44190;DHT22;29856;52.144;5.430;2023-02-23T00:56:12;9.80;99.90
44190;DHT22;29856;52.144;5.430;2023-02-23T00:58:38;9.80;99.90
44190;DHT22;29856;52.144;5.430;2023-02-23T01:01:07;9.70;99.90
44190;DHT22;29856;52.144;5.430;2023-02-23T01:03:34;9.80;99.90
44190;DHT22;29856;52.144;5.430;2023-02-23T01:06:01;9.80;99.90
44190;DHT22;29856;52.144;5.430;2023-02-23T01:08:28;9.80;99.90
44190;DHT22;29856;52.144;5.430;2023-02-23T01:10:53;9.90;99.90
44190;DHT22;29856;52.144;5.430;2023-02-23T01:13:20;9.80;99.90
44190;DHT22;29856;52.144;5.430;2023-02-23T01:15:46;9.80;99.90
44190;DHT22;29856;52.144;5.430;2023-02-23T01:18:14;9.80;99.90
44190;DHT22;29856;52.144;5.430;2023-02-23T01:20:39;9.70;99.90
44190;DHT22;29856;52.144;5.430;2023-02-23T01:23:05;9.60;99.90
44190;DHT22;29856;52.144;5.430;2023-02-23T01:25:32;9.70;99.90
44190;DHT22;29856;52.144;5.430;2023-02-23T01:27:57;9.60;99.90
44190;DHT22;29856;52.144;5.430;2023-02-23T01:30:23;9.70;99.90
44190;DHT22;29856;52.144;5.430;2023-02-23T01:32:48;9.80;99.90
44190;DHT22;29856;52.144;5.430;2023-02-23T01:35:14;9.70;99.90
44190;DHT22;29856;52.144;5.430;2023-02-23T01:37:41;9.90;99.90
44190;DHT22;29856;52.144;5.430;2023-02-23T01:40:14;9.90;99.90
44190;DHT22;29856;52.144;5.430;2023-02-23T01:42:43;9.90;99.90
44190;DHT22;29856;52.144;5.430;2023-02-23T01:45:29;9.90;99.90
44190;DHT22;29856;52.144;5.430;2023-02-23T01:47:58;9.80;99.90
44190;DHT22;29856;52.144;5.430;2023-02-23T01:50:25;9.90;99.90
44190;DHT22;29856;52.144;5.430;2023-02-23T01:52:52;9.90;99.90
44190;DHT22;29856;52.144;5.430;2023-02-23T01:55:20;9.90;99.90
44190;DHT22;29856;52.144;5.430;2023-02-23T01:57:46;10.00;99.90
44190;DHT22;29856;52.144;5.430;2023-02-23T02:00:12;10.00;99.90
44190;DHT22;29856;52.144;5.430;2023-02-23T02:02:37;10.00;99.90
44190;DHT22;29856;52.144;5.430;2023-02-23T02:05:03;10.00;99.90
44190;DHT22;29856;52.144;5.430;2023-02-23T02:07:30;10.00;99.90
44190;DHT22;29856;52.144;5.430;2023-02-23T02:09:57;10.10;99.90
44190;DHT22;29856;52.144;5.430;2023-02-23T02:12:23;10.10;99.90
44190;DHT22;29856;52.144;5.430;2023-02-23T02:14:49;10.00;99.90
44190;DHT22;29856;52.144;5.430;2023-02-23T02:26:09;10.10;99.90
44190;DHT22;29856;52.144;5.430;2023-02-23T02:29:04;10.10;99.90
44190;DHT22;29856;52.144;5.430;2023-02-23T02:31:41;10.10;99.90
44190;DHT22;29856;52.144;5.430;2023-02-23T02:42:38;10.30;99.90
44190;DHT22;29856;52.144;5.430;2023-02-23T02:45:24;10.40;99.90
44190;DHT22;29856;52.144;5.430;2023-02-23T02:53:08;10.10;99.90
44190;DHT22;29856;52.144;5.430;2023-02-23T02:55:37;10.00;99.90
44190;DHT22;29856;52.144;5.430;2023-02-23T02:58:05;10.10;99.90
44190;DHT22;29856;52.144;5.430;2023-02-23T03:00:40;10.10;99.90
44190;DHT22;29856;52.144;5.430;2023-02-23T03:03:27;10.00;99.90
44190;DHT22;29856;52.144;5.430;2023-02-23T03:05:53;10.00;99.90
44190;DHT22;29856;52.144;5.430;2023-02-23T03:08:36;9.90;99.90
44190;DHT22;29856;52.144;5.430;2023-02-23T03:11:09;9.90;99.90
44190;DHT22;29856;52.144;5.430;2023-02-23T03:13:58;9.90;99.90
44190;DHT22;29856;52.144;5.430;2023-02-23T03:16:33;9.90;99.90
44190;DHT22;29856;52.144;5.430;2023-02-23T03:19:12;9.90;99.90
44190;DHT22;29856;52.144;5.430;2023-02-23T03:22:06;10.00;99.90
44190;DHT22;29856;52.144;5.430;2023-02-23T03:24:44;9.90;99.90
44190;DHT22;29856;52.144;5.430;2023-02-23T03:30:00;9.90;99.90
44190;DHT22;29856;52.144;5.430;2023-02-23T03:32:32;9.90;99.90
44190;DHT22;29856;52.144;5.430;2023-02-23T03:35:06;9.90;99.90
44190;DHT22;29856;52.144;5.430;2023-02-23T03:37:38;9.90;99.90
44190;DHT22;29856;52.144;5.430;2023-02-23T03:40:20;9.90;99.90
44190;DHT22;29856;52.144;5.430;2023-02-23T03:42:49;9.90;99.90
44190;DHT22;29856;52.144;5.430;2023-02-23T03:45:18;9.90;99.90
44190;DHT22;29856;52.144;5.430;2023-02-23T03:47:46;9.90;99.90
44190;DHT22;29856;52.144;5.430;2023-02-23T03:50:34;9.90;99.90
44190;DHT22;29856;52.144;5.430;2023-02-23T03:53:02;9.90;99.90
44190;DHT22;29856;52.144;5.430;2023-02-23T03:55:31;9.90;99.90
44190;DHT22;29856;52.144;5.430;2023-02-23T03:57:58;9.90;99.90
44190;DHT22;29856;52.144;5.430;2023-02-23T04:00:31;10.00;99.90
44190;DHT22;29856;52.144;5.430;2023-02-23T04:02:59;10.00;99.90
44190;DHT22;29856;52.144;5.430;2023-02-23T04:05:25;10.10;99.90
44190;DHT22;29856;52.144;5.430;2023-02-23T04:07:53;10.20;99.90
44190;DHT22;29856;52.144;5.430;2023-02-23T04:10:20;10.20;99.90
44190;DHT22;29856;52.144;5.430;2023-02-23T04:13:06;10.20;99.90
44190;DHT22;29856;52.144;5.430;2023-02-23T04:15:53;10.30;99.90
44190;DHT22;29856;52.144;5.430;2023-02-23T04:18:24;10.20;99.90
44190;DHT22;29856;52.144;5.430;2023-02-23T04:20:50;10.20;99.90
44190;DHT22;29856;52.144;5.430;2023-02-23T04:23:15;10.30;99.90
44190;DHT22;29856;52.144;5.430;2023-02-23T04:25:41;10.30;99.90
44190;DHT22;29856;52.144;5.430;2023-02-23T04:28:07;10.30;99.90
44190;DHT22;29856;52.144;5.430;2023-02-23T04:30:32;10.30;99.90
44190;DHT22;29856;52.144;5.430;2023-02-23T04:32:57;10.30;99.90
44190;DHT22;29856;52.144;5.430;2023-02-23T04:35:23;10.20;99.90
44190;DHT22;29856;52.144;5.430;2023-02-23T04:37:49;10.20;99.90
44190;DHT22;29856;52.144;5.430;2023-02-23T04:40:14;10.30;99.90
44190;DHT22;29856;52.144;5.430;2023-02-23T04:42:40;10.40;99.90
44190;DHT22;29856;52.144;5.430;2023-02-23T04:45:07;10.50;99.90
44190;DHT22;29856;52.144;5.430;2023-02-23T04:47:32;10.50;99.90
44190;DHT22;29856;52.144;5.430;2023-02-23T04:49:58;10.50;99.90
44190;DHT22;29856;52.144;5.430;2023-02-23T04:52:23;10.50;99.90
44190;DHT22;29856;52.144;5.430;2023-02-23T04:54:49;10.40;99.90
44190;DHT22;29856;52.144;5.430;2023-02-23T04:57:14;10.30;99.90
44190;DHT22;29856;52.144;5.430;2023-02-23T04:59:40;10.30;99.90
44190;DHT22;29856;52.144;5.430;2023-02-23T05:02:05;10.10;99.90
44190;DHT22;29856;52.144;5.430;2023-02-23T05:04:31;10.10;99.90
44190;DHT22;29856;52.144;5.430;2023-02-23T05:06:57;10.10;99.90
44190;DHT22;29856;52.144;5.430;2023-02-23T05:09:22;10.00;99.90
44190;DHT22;29856;52.144;5.430;2023-02-23T05:11:48;10.00;99.90
44190;DHT22;29856;52.144;5.430;2023-02-23T05:14:13;10.00;99.90
44190;DHT22;29856;52.144;5.430;2023-02-23T05:16:39;10.10;99.90
44190;DHT22;29856;52.144;5.430;2023-02-23T05:19:04;9.90;99.90
44190;DHT22;29856;52.144;5.430;2023-02-23T05:21:30;9.90;99.90
44190;DHT22;29856;52.144;5.430;2023-02-23T05:23:55;10.00;99.90
44190;DHT22;29856;52.144;5.430;2023-02-23T05:26:21;9.90;99.90
44190;DHT22;29856;52.144;5.430;2023-02-23T05:28:47;9.80;99.90
44190;DHT22;29856;52.144;5.430;2023-02-23T05:31:12;9.80;99.90
44190;DHT22;29856;52.144;5.430;2023-02-23T05:33:38;9.80;99.90
44190;DHT22;29856;52.144;5.430;2023-02-23T05:36:04;9.80;99.90
44190;DHT22;29856;52.144;5.430;2023-02-23T05:38:30;9.80;99.90
44190;DHT22;29856;52.144;5.430;2023-02-23T05:40:55;9.80;99.90
44190;DHT22;29856;52.144;5.430;2023-02-23T05:43:21;9.80;99.90
44190;DHT22;29856;52.144;5.430;2023-02-23T05:45:46;9.80;99.90
44190;DHT22;29856;52.144;5.430;2023-02-23T05:48:12;9.80;99.90
44190;DHT22;29856;52.144;5.430;2023-02-23T05:50:37;9.80;99.90
44190;DHT22;29856;52.144;5.430;2023-02-23T05:53:03;9.80;99.90
44190;DHT22;29856;52.144;5.430;2023-02-23T05:55:29;9.80;99.90
44190;DHT22;29856;52.144;5.430;2023-02-23T05:57:54;9.80;99.90
44190;DHT22;29856;52.144;5.430;2023-02-23T06:00:20;9.80;99.90
44190;DHT22;29856;52.144;5.430;2023-02-23T06:02:46;9.60;99.90
44190;DHT22;29856;52.144;5.430;2023-02-23T06:05:12;9.60;99.90
44190;DHT22;29856;52.144;5.430;2023-02-23T06:07:37;9.60;99.90
44190;DHT22;29856;52.144;5.430;2023-02-23T06:10:04;9.40;99.90
44190;DHT22;29856;52.144;5.430;2023-02-23T06:12:29;9.50;99.90
44190;DHT22;29856;52.144;5.430;2023-02-23T06:14:55;9.20;99.90
44190;DHT22;29856;52.144;5.430;2023-02-23T06:17:20;9.20;99.90
44190;DHT22;29856;52.144;5.430;2023-02-23T06:19:46;9.20;99.90
44190;DHT22;29856;52.144;5.430;2023-02-23T06:22:11;9.30;99.90
44190;DHT22;29856;52.144;5.430;2023-02-23T06:24:37;9.40;99.90
44190;DHT22;29856;52.144;5.430;2023-02-23T06:27:02;9.40;99.90
44190;DHT22;29856;52.144;5.430;2023-02-23T06:29:28;9.50;99.90
44190;DHT22;29856;52.144;5.430;2023-02-23T06:31:54;9.50;99.90
44190;DHT22;29856;52.144;5.430;2023-02-23T06:34:20;9.60;99.90
44190;DHT22;29856;52.144;5.430;2023-02-23T06:36:45;9.60;99.90
44190;DHT22;29856;52.144;5.430;2023-02-23T06:39:11;9.70;99.90
44190;DHT22;29856;52.144;5.430;2023-02-23T06:41:37;9.70;99.90
44190;DHT22;29856;52.144;5.430;2023-02-23T06:44:03;9.80;99.90
44190;DHT22;29856;52.144;5.430;2023-02-23T06:46:28;9.90;99.90
44190;DHT22;29856;52.144;5.430;2023-02-23T06:48:55;9.80;99.90
44190;DHT22;29856;52.144;5.430;2023-02-23T06:51:22;9.90;99.90
44190;DHT22;29856;52.144;5.430;2023-02-23T06:53:47;9.80;99.90
44190;DHT22;29856;52.144;5.430;2023-02-23T06:56:13;9.70;99.90
44190;DHT22;29856;52.144;5.430;2023-02-23T06:58:41;9.80;99.90
44190;DHT22;29856;52.144;5.430;2023-02-23T07:01:07;9.90;99.90
44190;DHT22;29856;52.144;5.430;2023-02-23T07:03:33;9.80;99.90
44190;DHT22;29856;52.144;5.430;2023-02-23T07:05:58;9.80;99.90
44190;DHT22;29856;52.144;5.430;2023-02-23T07:08:23;9.90;99.90
44190;DHT22;29856;52.144;5.430;2023-02-23T07:10:49;9.90;99.90
44190;DHT22;29856;52.144;5.430;2023-02-23T07:13:14;9.90;99.90
44190;DHT22;29856;52.144;5.430;2023-02-23T07:15:41;9.80;99.90
44190;DHT22;29856;52.144;5.430;2023-02-23T07:18:07;9.80;99.90
44190;DHT22;29856;52.144;5.430;2023-02-23T07:20:32;9.80;99.90
44190;DHT22;29856;52.144;5.430;2023-02-23T07:22:59;9.70;99.90
44190;DHT22;29856;52.144;5.430;2023-02-23T07:25:25;9.70;99.90
44190;DHT22;29856;52.144;5.430;2023-02-23T07:27:50;9.70;99.90
44190;DHT22;29856;52.144;5.430;2023-02-23T07:30:16;9.80;99.90
44190;DHT22;29856;52.144;5.430;2023-02-23T07:32:41;9.70;99.90
44190;DHT22;29856;52.144;5.430;2023-02-23T07:35:07;9.70;99.90
44190;DHT22;29856;52.144;5.430;2023-02-23T07:37:33;9.60;99.90
44190;DHT22;29856;52.144;5.430;2023-02-23T07:39:58;9.50;99.90
44190;DHT22;29856;52.144;5.430;2023-02-23T07:42:24;9.40;99.90
44190;DHT22;29856;52.144;5.430;2023-02-23T07:44:49;9.50;99.90
44190;DHT22;29856;52.144;5.430;2023-02-23T07:47:15;9.50;99.90
44190;DHT22;29856;52.144;5.430;2023-02-23T07:49:40;9.50;99.90
44190;DHT22;29856;52.144;5.430;2023-02-23T07:52:05;9.50;99.90
44190;DHT22;29856;52.144;5.430;2023-02-23T07:54:31;9.50;99.90
44190;DHT22;29856;52.144;5.430;2023-02-23T07:56:56;9.40;99.90
44190;DHT22;29856;52.144;5.430;2023-02-23T07:59:22;9.40;99.90
44190;DHT22;29856;52.144;5.430;2023-02-23T08:01:47;9.30;99.90
44190;DHT22;29856;52.144;5.430;2023-02-23T08:04:13;9.20;99.90
44190;DHT22;29856;52.144;5.430;2023-02-23T08:06:38;9.30;99.90
44190;DHT22;29856;52.144;5.430;2023-02-23T08:09:04;9.40;99.90
44190;DHT22;29856;52.144;5.430;2023-02-23T08:11:30;9.40;99.90
44190;DHT22;29856;52.144;5.430;2023-02-23T08:13:56;9.50;99.90
44190;DHT22;29856;52.144;5.430;2023-02-23T08:16:21;9.50;99.90
44190;DHT22;29856;52.144;5.430;2023-02-23T08:18:47;9.50;99.90
44190;DHT22;29856;52.144;5.430;2023-02-23T08:21:12;9.60;99.90
44190;DHT22;29856;52.144;5.430;2023-02-23T08:23:38;9.60;99.90
44190;DHT22;29856;52.144;5.430;2023-02-23T08:26:03;9.70;99.90
44190;DHT22;29856;52.144;5.430;2023-02-23T08:28:29;9.80;99.90
44190;DHT22;29856;52.144;5.430;2023-02-23T08:30:55;9.80;99.90
44190;DHT22;29856;52.144;5.430;2023-02-23T08:33:21;9.70;99.90
44190;DHT22;29856;52.144;5.430;2023-02-23T08:35:47;9.70;99.90
44190;DHT22;29856;52.144;5.430;2023-02-23T08:38:12;9.70;99.90
44190;DHT22;29856;52.144;5.430;2023-02-23T08:40:38;9.70;99.90
44190;DHT22;29856;52.144;5.430;2023-02-23T08:43:03;9.80;99.90
44190;DHT22;29856;52.144;5.430;2023-02-23T08:45:29;9.80;99.90
44190;DHT22;29856;52.144;5.430;2023-02-23T08:47:55;9.80;99.90
44190;DHT22;29856;52.144;5.430;2023-02-23T08:50:21;9.60;99.90
44190;DHT22;29856;52.144;5.430;2023-02-23T08:52:46;9.50;99.90
44190;DHT22;29856;52.144;5.430;2023-02-23T08:55:12;9.60;99.90
44190;DHT22;29856;52.144;5.430;2023-02-23T08:57:37;9.40;99.90
44190;DHT22;29856;52.144;5.430;2023-02-23T09:00:04;9.50;99.90
44190;DHT22;29856;52.144;5.430;2023-02-23T09:02:30;9.40;99.90
44190;DHT22;29856;52.144;5.430;2023-02-23T09:04:55;9.50;99.90
44190;DHT22;29856;52.144;5.430;2023-02-23T09:07:21;9.20;99.90
44190;DHT22;29856;52.144;5.430;2023-02-23T09:09:53;9.30;99.90
44190;DHT22;29856;52.144;5.430;2023-02-23T09:12:18;9.40;99.90
44190;DHT22;29856;52.144;5.430;2023-02-23T09:14:44;9.60;99.90
44190;DHT22;29856;52.144;5.430;2023-02-23T09:17:09;9.50;99.90
44190;DHT22;29856;52.144;5.430;2023-02-23T09:19:35;9.60;99.90
44190;DHT22;29856;52.144;5.430;2023-02-23T09:22:00;9.70;99.90
44190;DHT22;29856;52.144;5.430;2023-02-23T09:24:26;9.60;99.90
44190;DHT22;29856;52.144;5.430;2023-02-23T09:26:51;9.70;99.90
44190;DHT22;29856;52.144;5.430;2023-02-23T09:29:17;9.70;99.90
44190;DHT22;29856;52.144;5.430;2023-02-23T09:31:42;9.40;99.90
44190;DHT22;29856;52.144;5.430;2023-02-23T09:34:08;9.20;99.90
44190;DHT22;29856;52.144;5.430;2023-02-23T09:36:33;9.10;99.90
44190;DHT22;29856;52.144;5.430;2023-02-23T09:38:59;9.20;99.90
44190;DHT22;29856;52.144;5.430;2023-02-23T09:43:58;9.30;99.90
44190;DHT22;29856;52.144;5.430;2023-02-23T09:49:00;9.30;99.90
44190;DHT22;29856;52.144;5.430;2023-02-23T09:51:27;9.40;99.90
44190;DHT22;29856;52.144;5.430;2023-02-23T09:53:57;9.30;99.90
44190;DHT22;29856;52.144;5.430;2023-02-23T09:56:30;9.20;99.90
44190;DHT22;29856;52.144;5.430;2023-02-23T09:58:59;9.20;99.90
44190;DHT22;29856;52.144;5.430;2023-02-23T10:04:20;9.20;99.90
44190;DHT22;29856;52.144;5.430;2023-02-23T10:07:04;9.20;99.90
44190;DHT22;29856;52.144;5.430;2023-02-23T10:15:26;9.30;99.90
44190;DHT22;29856;52.144;5.430;2023-02-23T10:18:19;9.20;99.90
44190;DHT22;29856;52.144;5.430;2023-02-23T10:23:52;9.40;99.90
44190;DHT22;29856;52.144;5.430;2023-02-23T10:26:23;9.40;99.90
44190;DHT22;29856;52.144;5.430;2023-02-23T10:28:49;9.40;99.90
44190;DHT22;29856;52.144;5.430;2023-02-23T10:32:03;9.50;99.90
44190;DHT22;29856;52.144;5.430;2023-02-23T10:34:09;9.50;99.90
44190;DHT22;29856;52.144;5.430;2023-02-23T10:36:55;9.50;99.90
44190;DHT22;29856;52.144;5.430;2023-02-23T10:39:22;9.50;99.90
44190;DHT22;29856;52.144;5.430;2023-02-23T10:41:47;9.40;99.90
44190;DHT22;29856;52.144;5.430;2023-02-23T10:44:22;9.50;99.90
44190;DHT22;29856;52.144;5.430;2023-02-23T10:46:57;9.70;99.90
44190;DHT22;29856;52.144;5.430;2023-02-23T10:49:39;9.80;99.90
44190;DHT22;29856;52.144;5.430;2023-02-23T10:52:09;9.80;99.90
44190;DHT22;29856;52.144;5.430;2023-02-23T10:54:41;9.70;99.90
44190;DHT22;29856;52.144;5.430;2023-02-23T10:57:07;9.50;99.90
44190;DHT22;29856;52.144;5.430;2023-02-23T10:59:33;9.60;99.90
44190;DHT22;29856;52.144;5.430;2023-02-23T11:02:15;9.60;99.90
44190;DHT22;29856;52.144;5.430;2023-02-23T11:04:54;9.50;99.90
44190;DHT22;29856;52.144;5.430;2023-02-23T11:07:23;9.60;99.90
44190;DHT22;29856;52.144;5.430;2023-02-23T11:09:49;9.60;99.90
44190;DHT22;29856;52.144;5.430;2023-02-23T11:12:21;9.60;99.90
44190;DHT22;29856;52.144;5.430;2023-02-23T11:14:49;9.50;99.90
44190;DHT22;29856;52.144;5.430;2023-02-23T11:17:27;9.70;99.90
44190;DHT22;29856;52.144;5.430;2023-02-23T11:22:43;9.80;99.90
44190;DHT22;29856;52.144;5.430;2023-02-23T11:25:18;9.90;99.90
44190;DHT22;29856;52.144;5.430;2023-02-23T11:27:48;9.70;99.90
44190;DHT22;29856;52.144;5.430;2023-02-23T11:30:14;9.50;99.90
44190;DHT22;29856;52.144;5.430;2023-02-23T11:32:40;9.50;99.90
44190;DHT22;29856;52.144;5.430;2023-02-23T11:37:48;9.40;99.90
44190;DHT22;29856;52.144;5.430;2023-02-23T11:42:56;9.00;99.90
44190;DHT22;29856;52.144;5.430;2023-02-23T11:45:24;9.30;99.90
44190;DHT22;29856;52.144;5.430;2023-02-23T11:47:52;9.20;99.90
44190;DHT22;29856;52.144;5.430;2023-02-23T11:52:56;9.00;99.90
44190;DHT22;29856;52.144;5.430;2023-02-23T11:55:24;9.10;99.90
44190;DHT22;29856;52.144;5.430;2023-02-23T11:57:50;9.10;99.90
44190;DHT22;29856;52.144;5.430;2023-02-23T12:00:25;9.10;99.90
44190;DHT22;29856;52.144;5.430;2023-02-23T12:02:56;9.00;99.90
44190;DHT22;29856;52.144;5.430;2023-02-23T12:05:25;9.00;99.90
44190;DHT22;29856;52.144;5.430;2023-02-23T12:08:13;8.90;99.90
44190;DHT22;29856;52.144;5.430;2023-02-23T12:10:50;9.00;99.90
44190;DHT22;29856;52.144;5.430;2023-02-23T12:13:39;8.80;99.90
44190;DHT22;29856;52.144;5.430;2023-02-23T12:16:22;8.90;99.90
44190;DHT22;29856;52.144;5.430;2023-02-23T12:19:04;8.90;99.90
44190;DHT22;29856;52.144;5.430;2023-02-23T12:21:36;9.00;99.90
44190;DHT22;29856;52.144;5.430;2023-02-23T12:27:07;8.90;99.90
44190;DHT22;29856;52.144;5.430;2023-02-23T12:32:33;9.10;99.90
44190;DHT22;29856;52.144;5.430;2023-02-23T12:35:09;9.00;99.90
44190;DHT22;29856;52.144;5.430;2023-02-23T12:38:32;9.20;99.90
44190;DHT22;29856;52.144;5.430;2023-02-23T12:40:37;9.30;99.90
44190;DHT22;29856;52.144;5.430;2023-02-23T12:52:31;9.30;99.90
44190;DHT22;29856;52.144;5.430;2023-02-23T12:54:25;9.40;99.90
44190;DHT22;29856;52.144;5.430;2023-02-23T12:56:56;9.40;99.90
44190;DHT22;29856;52.144;5.430;2023-02-23T13:02:42;9.60;99.90
44190;DHT22;29856;52.144;5.430;2023-02-23T13:05:29;9.50;99.90
44190;DHT22;29856;52.144;5.430;2023-02-23T13:10:57;9.30;99.90
44190;DHT22;29856;52.144;5.430;2023-02-23T13:16:37;9.30;99.90
44190;DHT22;29856;52.144;5.430;2023-02-23T13:24:59;9.30;99.90
44190;DHT22;29856;52.144;5.430;2023-02-23T13:27:39;9.60;99.90
44190;DHT22;29856;52.144;5.430;2023-02-23T13:30:11;9.50;99.90
44190;DHT22;29856;52.144;5.430;2023-02-23T13:32:37;9.40;99.90
44190;DHT22;29856;52.144;5.430;2023-02-23T13:35:05;9.40;99.90
44190;DHT22;29856;52.144;5.430;2023-02-23T13:43:19;9.60;99.90
44190;DHT22;29856;52.144;5.430;2023-02-23T13:48:52;9.70;99.90
44190;DHT22;29856;52.144;5.430;2023-02-23T13:51:40;9.60;99.90
44190;DHT22;29856;52.144;5.430;2023-02-23T13:56:56;9.50;99.90
44190;DHT22;29856;52.144;5.430;2023-02-23T13:59:25;9.60;99.90
44190;DHT22;29856;52.144;5.430;2023-02-23T14:01:52;9.70;99.90
44190;DHT22;29856;52.144;5.430;2023-02-23T14:04:27;9.70;99.90
44190;DHT22;29856;52.144;5.430;2023-02-23T14:07:01;9.60;99.90
44190;DHT22;29856;52.144;5.430;2023-02-23T14:09:33;9.60;99.90
44190;DHT22;29856;52.144;5.430;2023-02-23T14:18:26;9.40;99.90
44190;DHT22;29856;52.144;5.430;2023-02-23T14:21:10;9.50;99.90
44190;DHT22;29856;52.144;5.430;2023-02-23T14:29:20;9.60;99.90
44190;DHT22;29856;52.144;5.430;2023-02-23T14:37:27;9.60;99.90
44190;DHT22;29856;52.144;5.430;2023-02-23T14:39:55;9.50;99.90
44190;DHT22;29856;52.144;5.430;2023-02-23T14:42:24;9.50;99.90
44190;DHT22;29856;52.144;5.430;2023-02-23T14:44:52;9.50;99.90
44190;DHT22;29856;52.144;5.430;2023-02-23T14:47:20;9.50;99.90
44190;DHT22;29856;52.144;5.430;2023-02-23T14:49:58;9.60;99.90
44190;DHT22;29856;52.144;5.430;2023-02-23T14:52:40;9.60;99.90
44190;DHT22;29856;52.144;5.430;2023-02-23T14:57:47;9.70;99.90
44190;DHT22;29856;52.144;5.430;2023-02-23T15:00:21;9.80;99.90
44190;DHT22;29856;52.144;5.430;2023-02-23T15:03:05;9.80;99.90
44190;DHT22;29856;52.144;5.430;2023-02-23T15:05:43;9.70;99.90
44190;DHT22;29856;52.144;5.430;2023-02-23T15:08:13;9.60;99.90
44190;DHT22;29856;52.144;5.430;2023-02-23T15:10:45;9.50;99.90
44190;DHT22;29856;52.144;5.430;2023-02-23T15:13:30;9.50;99.90
44190;DHT22;29856;52.144;5.430;2023-02-23T15:16:00;9.40;99.90
44190;DHT22;29856;52.144;5.430;2023-02-23T15:18:35;9.40;99.90
44190;DHT22;29856;52.144;5.430;2023-02-23T15:21:21;9.20;99.90
44190;DHT22;29856;52.144;5.430;2023-02-23T15:23:49;8.90;99.90
44190;DHT22;29856;52.144;5.430;2023-02-23T15:26:35;8.80;99.90
44190;DHT22;29856;52.144;5.430;2023-02-23T15:29:03;8.50;99.90
44190;DHT22;29856;52.144;5.430;2023-02-23T15:31:30;8.60;99.90
44190;DHT22;29856;52.144;5.430;2023-02-23T15:33:58;8.50;99.90
44190;DHT22;29856;52.144;5.430;2023-02-23T15:36:30;8.50;99.90
44190;DHT22;29856;52.144;5.430;2023-02-23T15:38:58;8.50;99.90
44190;DHT22;29856;52.144;5.430;2023-02-23T15:44:21;8.40;99.90
44190;DHT22;29856;52.144;5.430;2023-02-23T15:46:52;8.20;99.90
44190;DHT22;29856;52.144;5.430;2023-02-23T15:49:18;8.20;99.90
44190;DHT22;29856;52.144;5.430;2023-02-23T15:51:47;8.30;99.90
44190;DHT22;29856;52.144;5.430;2023-02-23T15:54:33;8.40;99.90
44190;DHT22;29856;52.144;5.430;2023-02-23T15:57:13;8.20;99.90
44190;DHT22;29856;52.144;5.430;2023-02-23T15:59:45;8.10;99.90
44190;DHT22;29856;52.144;5.430;2023-02-23T16:02:14;8.10;99.90
44190;DHT22;29856;52.144;5.430;2023-02-23T16:04:40;8.00;99.90
44190;DHT22;29856;52.144;5.430;2023-02-23T16:07:21;7.90;99.90
44190;DHT22;29856;52.144;5.430;2023-02-23T16:12:22;7.90;99.90
44190;DHT22;29856;52.144;5.430;2023-02-23T16:14:54;7.90;99.90
44190;DHT22;29856;52.144;5.430;2023-02-23T16:17:25;7.80;99.90
44190;DHT22;29856;52.144;5.430;2023-02-23T16:19:53;7.80;99.90
44190;DHT22;29856;52.144;5.430;2023-02-23T16:22:24;7.80;99.90
44190;DHT22;29856;52.144;5.430;2023-02-23T16:24:57;7.80;99.90
44190;DHT22;29856;52.144;5.430;2023-02-23T16:27:24;7.80;99.90
44190;DHT22;29856;52.144;5.430;2023-02-23T16:29:59;7.80;99.90
44190;DHT22;29856;52.144;5.430;2023-02-23T16:32:35;8.00;99.90
44190;DHT22;29856;52.144;5.430;2023-02-23T16:35:07;8.00;99.90
44190;DHT22;29856;52.144;5.430;2023-02-23T16:37:49;8.00;99.90
44190;DHT22;29856;52.144;5.430;2023-02-23T16:40:15;8.00;99.90
44190;DHT22;29856;52.144;5.430;2023-02-23T16:42:40;8.10;99.90
44190;DHT22;29856;52.144;5.430;2023-02-23T16:45:08;8.30;99.90
44190;DHT22;29856;52.144;5.430;2023-02-23T16:47:45;8.30;99.90
44190;DHT22;29856;52.144;5.430;2023-02-23T16:50:19;8.20;99.90
44190;DHT22;29856;52.144;5.430;2023-02-23T16:52:46;8.10;99.90
44190;DHT22;29856;52.144;5.430;2023-02-23T16:55:13;8.20;99.90
44190;DHT22;29856;52.144;5.430;2023-02-23T16:57:39;8.10;99.90
44190;DHT22;29856;52.144;5.430;2023-02-23T17:00:07;8.10;99.90
44190;DHT22;29856;52.144;5.430;2023-02-23T17:02:33;8.20;99.90
44190;DHT22;29856;52.144;5.430;2023-02-23T17:04:58;8.00;99.90
44190;DHT22;29856;52.144;5.430;2023-02-23T17:07:24;8.00;99.90
44190;DHT22;29856;52.144;5.430;2023-02-23T17:09:49;7.90;99.90
44190;DHT22;29856;52.144;5.430;2023-02-23T17:12:15;7.70;99.90
44190;DHT22;29856;52.144;5.430;2023-02-23T17:14:41;7.70;99.90
44190;DHT22;29856;52.144;5.430;2023-02-23T17:17:12;7.70;99.90
44190;DHT22;29856;52.144;5.430;2023-02-23T17:19:38;7.70;99.90
44190;DHT22;29856;52.144;5.430;2023-02-23T17:22:03;7.70;99.90
44190;DHT22;29856;52.144;5.430;2023-02-23T17:24:29;7.70;99.90
44190;DHT22;29856;52.144;5.430;2023-02-23T17:26:54;7.70;99.90
44190;DHT22;29856;52.144;5.430;2023-02-23T17:29:19;7.60;99.90
44190;DHT22;29856;52.144;5.430;2023-02-23T17:31:45;7.60;99.90
44190;DHT22;29856;52.144;5.430;2023-02-23T17:34:12;7.60;99.90
44190;DHT22;29856;52.144;5.430;2023-02-23T17:36:37;7.50;99.90
44190;DHT22;29856;52.144;5.430;2023-02-23T17:39:03;7.50;99.90
44190;DHT22;29856;52.144;5.430;2023-02-23T17:41:28;7.50;99.90
44190;DHT22;29856;52.144;5.430;2023-02-23T17:43:54;7.40;99.90
44190;DHT22;29856;52.144;5.430;2023-02-23T17:46:19;7.30;99.90
44190;DHT22;29856;52.144;5.430;2023-02-23T17:48:45;7.40;99.90
44190;DHT22;29856;52.144;5.430;2023-02-23T17:51:11;7.50;99.90
44190;DHT22;29856;52.144;5.430;2023-02-23T17:53:38;7.40;99.90
44190;DHT22;29856;52.144;5.430;2023-02-23T17:56:04;7.30;99.90